Terminal Aerodrome Forecast
Issued by NWS

Home | Current Version | Previous Version | Text Only | Print | Product List | Glossary On
Versions: 1 2 3 4 5 6 7 8 9 10 11 12 13 14 15 16 17 18 19 20 21 22
000
FTUS45 KCYS 250240 AAB
TAFLAR
TAF AMD
KLAR 250240Z 2503/2524 27007KT 1 1/2SM -SN OVC012
     FM250500 13006KT 6SM BR BKN008 OVC012
     FM251600 02009KT P6SM SCT025 BKN040=

USA.gov is the U.S. government's official web portal to all federal, state and local government web resources and services.